Time;durP1;ratioP1;P1;durP2;ratioP2;P2;SDS_P1;SDS_P2;PMS_P1;PMS_P2;Temp;Humidity;BMP_temperature;BMP_pressure;BME280_temperature;BME280_humidity;BME280_pressure;Samples;Min_cycle;Max_cycle;Signal;HPM_P1;HPM_P2
2022/11/19 00:01:56;;;;;;;2.47;2.00;;;;;;;20.43;50.85;96023.22;10376793;28;20053;-59
2022/11/19 00:07:16;;;;;;;2.30;2.10;;;;;;;20.41;50.90;96017.38;10376618;28;20064;-58
2022/11/19 00:12:53;;;;;;;3.30;2.10;;;;;;;20.40;50.77;96029.31;10376473;28;20050;-58
2022/11/19 00:18:13;;;;;;;3.13;2.40;;;;;;;20.38;50.81;96031.56;10376230;28;20058;-59
2022/11/19 00:23:32;;;;;;;2.83;1.88;;;;;;;20.35;50.74;96030.34;10375979;28;20409;-58
2022/11/19 00:28:53;;;;;;;3.13;2.30;;;;;;;20.33;50.76;96025.28;10375703;28;20077;-59
2022/11/19 00:34:13;;;;;;;2.75;2.30;;;;;;;20.32;50.72;96021.00;10375487;28;20058;-59
2022/11/19 00:39:32;;;;;;;3.83;2.33;;;;;;;20.31;50.85;96024.06;10388467;28;20046;-59
2022/11/19 00:44:51;;;;;;;2.22;2.00;;;;;;;20.29;50.78;96046.06;10374821;28;20054;-59
2022/11/19 00:50:11;;;;;;;2.60;2.20;;;;;;;20.28;50.79;96052.59;10375027;28;20077;-58
2022/11/19 00:55:30;;;;;;;2.95;2.22;;;;;;;20.26;50.70;96064.88;10374559;28;20054;-58
2022/11/19 01:00:50;;;;;;;3.55;1.85;;;;;;;20.25;50.75;96066.81;10387624;28;20042;-59
2022/11/19 01:06:10;;;;;;;2.50;1.83;;;;;;;20.23;50.71;96068.28;10373226;28;20046;-59
2022/11/19 01:11:32;;;;;;;2.80;2.17;;;;;;;20.21;50.76;96081.34;10387330;28;20401;-58
2022/11/19 01:16:52;;;;;;;2.63;2.03;;;;;;;20.20;50.83;96086.00;10374068;28;20049;-58
2022/11/19 01:22:11;;;;;;;2.42;2.00;;;;;;;20.18;50.72;96087.47;10374020;28;20057;-58
2022/11/19 01:27:31;;;;;;;2.40;1.85;;;;;;;20.15;50.65;96081.63;10386745;28;20482;-58
2022/11/19 01:32:50;;;;;;;2.53;1.92;;;;;;;20.14;50.76;96084.66;10373748;28;20049;-59
2022/11/19 01:38:09;;;;;;;2.00;1.80;;;;;;;20.12;50.57;96085.00;10372663;28;20520;-58
2022/11/19 01:43:39;;;;;;;2.35;1.80;;;;;;;20.10;50.55;96089.19;10386297;28;20053;-58
2022/11/19 01:49:04;;;;;;;1.80;1.70;;;;;;;20.09;50.61;96084.91;10413517;28;20511;-58
2022/11/19 01:54:35;;;;;;;2.15;1.63;;;;;;;20.07;50.55;96098.78;10413778;28;20060;-58
2022/11/19 01:59:54;;;;;;;2.42;1.75;;;;;;;20.06;50.60;96120.75;10413038;28;20060;-58
2022/11/19 02:05:16;;;;;;;2.78;1.92;;;;;;;20.03;50.53;96124.13;10413793;28;20059;-58
2022/11/19 02:10:47;;;;;;;2.00;1.65;;;;;;;20.02;50.42;96128.75;10413707;28;20053;-58
2022/11/19 02:16:37;;;;;;;2.28;1.85;;;;;;;20.00;50.43;96141.06;10411782;28;20045;-58
2022/11/19 02:21:56;;;;;;;1.90;1.67;;;;;;;20.00;50.54;96160.00;10418434;28;20065;-58
2022/11/19 02:27:24;;;;;;;3.22;1.60;;;;;;;19.98;50.43;96170.34;10420699;28;20523;-58
2022/11/19 02:32:53;;;;;;;2.20;1.83;;;;;;;19.95;50.50;96169.91;10434395;28;20049;-58
2022/11/19 02:38:28;;;;;;;1.63;1.50;;;;;;;19.94;50.41;96175.66;10389481;28;20042;-58
2022/11/19 02:44:57;;;;;;;1.92;1.73;;;;;;;19.91;50.48;96169.00;10408227;28;20037;-58
2022/11/19 02:49:31;;;;;;;1.92;1.70;;;;;;;19.90;50.55;96159.31;10420035;28;20049;-58
2022/11/19 02:54:51;;;;;;;1.65;1.52;;;;;;;19.88;50.49;96144.59;10416582;28;20053;-58
2022/11/19 03:05:54;;;;;;;1.63;1.42;;;;;;;19.85;50.43;96147.97;10419930;28;20050;-58
2022/11/19 03:11:25;;;;;;;1.98;1.65;;;;;;;19.83;50.39;96151.00;10432994;28;20048;-58
2022/11/19 03:16:54;;;;;;;1.63;1.52;;;;;;;19.81;50.46;96166.00;10419482;28;20076;-58
2022/11/19 03:22:20;;;;;;;2.75;1.50;;;;;;;19.79;50.46;96160.91;10404477;28;20058;-58
2022/11/19 03:27:43;;;;;;;1.70;1.58;;;;;;;19.77;50.31;96160.47;10419019;28;20050;-58
2022/11/19 03:33:06;;;;;;;1.55;1.45;;;;;;;19.76;50.38;96172.44;10382538;28;20108;-58
2022/11/19 03:38:29;;;;;;;1.60;1.50;;;;;;;19.75;50.35;96189.75;10362218;28;20085;-58
2022/11/19 03:43:55;;;;;;;1.60;1.50;;;;;;;19.74;50.37;96193.59;10378234;28;20052;-58
2022/11/19 03:49:17;;;;;;;1.70;1.50;;;;;;;19.71;50.35;96189.66;10417425;28;20058;-58
2022/11/19 03:54:38;;;;;;;1.67;1.58;;;;;;;19.69;50.36;96197.28;10417776;28;20049;-58
2022/11/19 03:59:58;;;;;;;1.83;1.38;;;;;;;19.68;50.41;96208.41;10417958;28;20115;-57
2022/11/19 04:05:17;;;;;;;1.65;1.55;;;;;;;19.67;50.31;96213.03;10417616;28;20111;-58
2022/11/19 04:10:36;;;;;;;3.20;1.50;;;;;;;19.65;50.36;96217.22;10430710;28;20102;-58
2022/11/19 04:15:56;;;;;;;1.70;1.60;;;;;;;19.64;50.33;96221.03;10417417;28;20107;-58
2022/11/19 04:21:15;;;;;;;1.83;1.42;;;;;;;19.62;50.28;96220.59;10417043;28;20057;-58
2022/11/19 04:26:34;;;;;;;1.55;1.42;;;;;;;19.61;50.33;96216.31;10416319;28;20064;-58
2022/11/19 04:31:54;;;;;;;1.88;1.48;;;;;;;19.59;50.30;96216.66;10334998;28;20065;-58
2022/11/19 04:37:13;;;;;;;2.05;1.30;;;;;;;19.57;50.25;96221.59;10358960;28;20064;-58
2022/11/19 04:42:32;;;;;;;2.38;1.60;;;;;;;19.55;50.23;96219.25;10378863;28;20485;-58
2022/11/19 04:47:52;;;;;;;1.60;1.50;;;;;;;19.54;50.31;96227.69;10416038;28;20053;-58
2022/11/19 04:53:11;;;;;;;2.05;1.50;;;;;;;19.52;50.13;96230.72;10428999;28;20052;-58
2022/11/19 04:58:31;;;;;;;1.50;1.40;;;;;;;19.52;50.34;96238.03;10416830;28;20382;-58
2022/11/19 05:03:50;;;;;;;1.63;1.38;;;;;;;19.50;50.10;96242.97;10415386;28;20048;-58
2022/11/19 05:09:10;;;;;;;1.58;1.40;;;;;;;19.48;50.24;96254.16;10428447;28;20049;-58
2022/11/19 05:14:29;;;;;;;1.45;1.35;;;;;;;19.47;50.24;96249.84;10415066;28;20060;-58
2022/11/19 05:19:49;;;;;;;1.70;1.50;;;;;;;19.45;50.22;96237.81;10414850;28;20060;-58
2022/11/19 05:25:09;;;;;;;1.70;1.52;;;;;;;19.43;50.25;96246.25;10404258;28;20046;-58
2022/11/19 05:30:28;;;;;;;1.45;1.35;;;;;;;19.41;50.20;96245.81;10373596;28;20053;-58
2022/11/19 05:35:47;;;;;;;1.73;1.40;;;;;;;19.40;50.16;96243.44;10373434;28;20061;-58
2022/11/19 05:41:07;;;;;;;1.40;1.30;;;;;;;19.39;50.16;96258.06;10372485;28;20058;-58
2022/11/19 05:46:26;;;;;;;1.50;1.40;;;;;;;19.38;50.26;96261.88;10410247;28;20053;-58
2022/11/19 05:51:45;;;;;;;1.50;1.40;;;;;;;19.35;50.33;96268.75;10414142;28;20052;-58
2022/11/19 05:57:05;;;;;;;1.50;1.40;;;;;;;19.34;50.17;96283.38;10422045;28;20073;-58
2022/11/19 06:02:25;;;;;;;1.55;1.45;;;;;;;19.31;50.27;96282.13;10435494;28;20136;-56
2022/11/19 06:07:44;;;;;;;1.40;1.30;;;;;;;19.31;50.18;96292.94;10422269;28;20057;-57
2022/11/19 06:13:04;;;;;;;1.73;1.50;;;;;;;19.30;50.28;96290.56;10421450;28;20053;-58
2022/11/19 06:18:23;;;;;;;1.48;1.38;;;;;;;19.26;50.12;96303.94;10421844;28;20416;-58
2022/11/19 06:23:42;;;;;;;1.45;1.30;;;;;;;19.26;50.15;96297.75;10384892;28;20370;-58
2022/11/19 06:29:02;;;;;;;1.60;1.50;;;;;;;19.25;50.12;96324.00;10380407;28;20061;-58
2022/11/19 06:34:22;;;;;;;1.50;1.40;;;;;;;19.23;50.09;96330.81;10380242;28;20061;-58
2022/11/19 06:39:41;;;;;;;1.65;1.55;;;;;;;19.22;50.18;96324.66;10380170;28;20053;-58
2022/11/19 06:45:19;;;;;;;1.55;1.40;;;;;;;19.19;50.13;96314.53;10405277;28;20061;-58
2022/11/19 06:50:39;;;;;;;1.65;1.40;;;;;;;19.20;50.16;96320.72;10420573;28;20056;-58
2022/11/19 06:56:00;;;;;;;1.65;1.27;;;;;;;19.18;50.21;96321.03;10419881;28;20049;-55
2022/11/19 07:01:19;;;;;;;1.58;1.35;;;;;;;19.17;50.20;96325.66;10419696;28;20092;-58
2022/11/19 07:06:39;;;;;;;1.60;1.50;;;;;;;19.18;50.19;96339.94;10418377;28;20053;-58
2022/11/19 07:11:58;;;;;;;1.40;1.30;;;;;;;19.18;50.14;96339.94;10401171;28;20172;-56
2022/11/19 07:17:17;;;;;;;1.70;1.38;;;;;;;19.18;50.25;96334.53;10404760;28;20050;-58
2022/11/19 07:22:37;;;;;;;1.70;1.60;;;;;;;19.19;50.29;96341.53;10378469;28;20403;-58
2022/11/19 07:27:56;;;;;;;1.42;1.33;;;;;;;19.17;50.26;96333.75;10378326;28;20060;-58
2022/11/19 07:33:15;;;;;;;2.50;1.30;;;;;;;19.21;50.34;96341.16;10377081;28;20050;-58
2022/11/19 07:38:36;;;;;;;1.50;1.40;;;;;;;19.20;50.32;96345.00;10362549;28;20064;-58
2022/11/19 07:43:56;;;;;;;1.73;1.42;;;;;;;19.22;50.33;96342.75;10393473;28;20056;-58
2022/11/19 07:49:15;;;;;;;1.60;1.50;;;;;;;19.22;50.41;96343.53;10418381;28;20060;-58
2022/11/19 07:54:35;;;;;;;1.40;1.30;;;;;;;19.23;50.50;96347.84;10430160;28;20057;-58
2022/11/19 07:59:54;;;;;;;1.67;1.45;;;;;;;19.25;50.48;96339.38;10431201;28;20401;-58
2022/11/19 08:05:14;;;;;;;1.63;1.52;;;;;;;19.26;50.55;96336.34;10417708;28;20053;-58
2022/11/19 08:10:35;;;;;;;1.70;1.40;;;;;;;19.28;50.59;96338.72;10417509;28;20061;-58
2022/11/19 08:15:59;;;;;;;1.70;1.50;;;;;;;19.29;50.64;96346.50;10382537;28;20053;-58
2022/11/19 08:21:18;;;;;;;1.85;1.48;;;;;;;19.32;50.76;96347.75;10360471;28;20498;-57
2022/11/19 08:26:39;;;;;;;2.10;1.52;;;;;;;19.34;50.54;96348.97;10375892;28;20056;-57
2022/11/19 08:31:59;;;;;;;1.42;1.30;;;;;;;19.35;50.50;96355.97;10361051;28;20057;-57
2022/11/19 08:37:18;;;;;;;2.75;1.50;;;;;;;19.36;50.49;96362.16;10375531;28;20192;-57
2022/11/19 08:48:16;;;;;;;1.70;1.60;;;;;;;19.41;50.43;96361.97;10416180;28;20057;-57
2022/11/19 08:53:36;;;;;;;1.30;1.20;;;;;;;19.43;50.49;96367.81;10415312;28;20493;-57
2022/11/19 08:58:55;;;;;;;1.55;1.45;;;;;;;19.46;50.48;96369.84;10414780;28;20072;-57
2022/11/19 09:04:16;;;;;;;6.22;5.68;;;;;;;19.38;43.21;96365.31;10415353;28;20512;-57
2022/11/19 09:09:35;;;;;;;1.88;1.60;;;;;;;19.37;47.82;96379.97;10402241;28;20064;-57
2022/11/19 09:14:54;;;;;;;2.90;2.60;;;;;;;19.44;48.47;96382.09;10366210;28;20054;-57
2022/11/19 09:20:14;;;;;;;2.70;2.33;;;;;;;19.48;48.48;96386.53;10387143;28;20046;-58
2022/11/19 09:25:34;;;;;;;2.55;2.35;;;;;;;19.52;48.59;96387.44;10373319;28;20061;-57
2022/11/19 09:30:58;;;;;;;3.08;2.38;;;;;;;19.56;48.99;96398.34;10373288;28;20107;-57
2022/11/19 09:36:18;;;;;;;2.45;2.25;;;;;;;19.62;49.25;96396.22;10373451;28;20054;-57
2022/11/19 09:41:49;;;;;;;4.20;2.00;;;;;;;19.64;49.34;96391.28;10386474;28;20401;-57
2022/11/19 09:47:22;;;;;;;2.30;2.10;;;;;;;19.68;49.17;96394.88;10412351;28;20053;-57
2022/11/19 09:52:53;;;;;;;2.08;1.90;;;;;;;19.70;49.33;96403.47;10412266;28;20045;-57
2022/11/19 09:58:39;;;;;;;2.20;2.00;;;;;;;19.74;49.29;96401.69;10413455;28;20065;-57
2022/11/19 10:03:59;;;;;;;1.88;1.77;;;;;;;19.75;49.43;96404.06;10412883;28;20508;-57
2022/11/19 10:09:28;;;;;;;2.30;1.90;;;;;;;19.78;49.34;96399.09;10385244;28;20053;-57
2022/11/19 10:14:56;;;;;;;2.10;1.90;;;;;;;19.81;49.37;96399.22;10355405;28;20062;-57
2022/11/19 10:20:34;;;;;;;2.30;2.10;;;;;;;19.84;49.57;96408.59;10372780;28;20057;-57
2022/11/19 10:26:01;;;;;;;2.47;2.10;;;;;;;19.86;49.59;96409.03;10357853;28;20480;-57
2022/11/19 10:31:28;;;;;;;1.90;1.80;;;;;;;19.88;49.74;96395.97;10357766;28;20054;-57
2022/11/19 10:37:17;;;;;;;2.17;1.98;;;;;;;19.89;49.68;96370.50;10385378;28;20049;-57
2022/11/19 10:42:39;;;;;;;2.60;2.10;;;;;;;19.91;49.75;96363.63;10380454;28;20481;-57
2022/11/19 10:48:02;;;;;;;1.88;1.77;;;;;;;19.93;49.73;96369.53;10419692;28;20053;-57
2022/11/19 10:53:35;;;;;;;2.05;1.80;;;;;;;19.95;49.62;96355.66;10419892;28;20493;-57
2022/11/19 10:58:57;;;;;;;1.98;1.80;;;;;;;19.98;49.74;96365.03;10404809;28;20069;-57
2022/11/19 11:04:21;;;;;;;2.10;1.90;;;;;;;20.00;49.80;96357.34;10391844;28;20049;-57
2022/11/19 11:09:42;;;;;;;2.00;1.90;;;;;;;20.02;49.74;96368.63;10378994;28;20058;-57
2022/11/19 11:15:17;;;;;;;2.28;2.08;;;;;;;20.04;49.49;96360.97;10391943;28;20108;-57
2022/11/19 11:20:37;;;;;;;1.80;1.70;;;;;;;20.06;49.70;96353.28;10391693;28;20042;-57
2022/11/19 11:26:07;;;;;;;2.00;1.80;;;;;;;20.09;49.59;96352.59;10376560;28;20045;-54
2022/11/19 11:31:37;;;;;;;1.83;1.73;;;;;;;20.10;49.69;96346.88;10363288;28;20456;-56
2022/11/19 11:36:58;;;;;;;1.75;1.65;;;;;;;20.11;49.61;96332.22;10362993;28;20049;-57
2022/11/19 11:42:19;;;;;;;2.83;1.58;;;;;;;20.13;49.61;96331.88;10393872;28;20045;-55
2022/11/19 11:47:38;;;;;;;1.70;1.60;;;;;;;20.15;49.61;96326.94;10431655;28;20049;-57
2022/11/19 11:53:06;;;;;;;2.05;1.90;;;;;;;20.17;49.57;96321.16;10431186;28;20489;-57
2022/11/19 11:58:35;;;;;;;1.70;1.60;;;;;;;20.18;49.58;96320.84;10403678;28;20057;-58
2022/11/19 12:03:56;;;;;;;2.25;1.70;;;;;;;20.21;49.58;96314.75;10389983;28;20104;-57
2022/11/19 12:10:20;;;;;;;1.88;1.77;;;;;;;20.22;49.54;96323.66;10370850;28;20061;-55
2022/11/19 12:15:55;;;;;;;1.75;1.65;;;;;;;20.24;49.65;96324.09;10327169;28;20053;-57
2022/11/19 12:21:31;;;;;;;1.80;1.70;;;;;;;20.25;49.67;96321.06;10376172;28;20062;-57
2022/11/19 12:27:13;;;;;;;1.80;1.70;;;;;;;20.26;49.58;96325.31;10375945;28;20050;-58
2022/11/19 12:32:49;;;;;;;2.25;2.05;;;;;;;20.28;49.57;96316.88;10371817;28;20062;-57
2022/11/19 12:38:11;;;;;;;1.80;1.70;;;;;;;20.30;49.68;96314.63;10375003;28;20053;-57
2022/11/19 12:44:02;;;;;;;1.85;1.67;;;;;;;20.32;49.45;96317.78;10388437;28;20400;-57
2022/11/19 12:49:36;;;;;;;1.95;1.75;;;;;;;20.33;49.43;96316.66;10415089;28;20054;-57
2022/11/19 12:55:05;;;;;;;1.70;1.60;;;;;;;20.34;49.38;96321.72;10407649;28;20053;-57
2022/11/19 13:00:28;;;;;;;2.90;1.83;;;;;;;20.34;49.43;96324.41;10374116;28;20580;-57
2022/11/19 13:05:57;;;;;;;1.75;1.65;;;;;;;20.35;49.44;96328.72;10373902;28;20115;-58
2022/11/19 13:11:44;;;;;;;2.50;1.70;;;;;;;20.35;49.49;96334.13;10359138;28;20057;-57
2022/11/19 13:17:06;;;;;;;2.28;1.70;;;;;;;20.38;49.57;96329.16;10386227;28;20061;-57
2022/11/19 13:22:35;;;;;;;2.75;2.00;;;;;;;20.37;49.70;96322.97;10373434;28;20069;-58
2022/11/19 13:27:56;;;;;;;2.00;1.83;;;;;;;20.38;49.73;96327.22;10358825;28;20053;-57
2022/11/19 13:33:24;;;;;;;3.30;1.98;;;;;;;20.37;49.64;96322.97;10386581;28;20050;-57
2022/11/19 13:38:58;;;;;;;2.40;1.70;;;;;;;20.36;49.40;96318.66;10372811;28;20060;-57
2022/11/19 13:50:00;;;;;;;2.20;2.00;;;;;;;20.37;49.35;96331.06;10416102;28;20476;-57
2022/11/19 13:55:32;;;;;;;2.45;1.90;;;;;;;20.38;49.50;96326.44;10379347;28;20413;-58
2022/11/19 14:01:07;;;;;;;3.35;1.95;;;;;;;20.38;49.53;96323.75;10354909;28;20282;-57
2022/11/19 14:06:35;;;;;;;2.15;1.95;;;;;;;20.38;49.60;96326.44;10369442;28;20050;-57
2022/11/19 14:12:20;;;;;;;2.28;1.60;;;;;;;20.39;49.51;96336.16;10382295;28;20050;-54
2022/11/19 14:29:34;;;;;;;2.40;1.97;;;;;;;20.40;49.60;96335.00;10376491;28;20409;-57
2022/11/19 14:35:00;;;;;;;3.90;1.80;;;;;;;20.40;49.60;96326.91;10376254;28;20401;-58
2022/11/19 14:40:25;;;;;;;2.08;1.73;;;;;;;20.40;49.52;96338.50;10376441;28;20104;-57
2022/11/19 14:46:00;;;;;;;3.67;1.80;;;;;;;20.41;49.28;96342.00;10394113;28;20064;-58
2022/11/19 14:51:29;;;;;;;2.35;1.80;;;;;;;20.42;49.51;96338.94;10384649;28;20042;-57
2022/11/19 14:57:02;;;;;;;2.15;1.95;;;;;;;20.42;49.46;96340.88;10375872;28;20515;-57
2022/11/19 15:02:26;;;;;;;2.85;1.98;;;;;;;20.43;49.48;96334.34;10360921;28;20050;-56
2022/11/19 15:07:48;;;;;;;1.90;1.80;;;;;;;20.43;49.41;96337.81;10360941;28;20129;-57
2022/11/19 15:13:44;;;;;;;3.05;2.00;;;;;;;20.43;49.30;96339.75;10382775;28;20100;-57
2022/11/19 15:19:22;;;;;;;2.47;1.90;;;;;;;20.44;49.31;96335.91;10295333;28;20066;-57
2022/11/19 15:25:12;;;;;;;2.33;1.80;;;;;;;20.44;49.29;96344.81;10372751;28;20038;-57
2022/11/19 15:31:01;;;;;;;2.33;2.10;;;;;;;20.45;49.25;96340.19;10369566;28;20056;-57
2022/11/19 15:36:40;;;;;;;2.00;1.90;;;;;;;20.45;49.29;96337.50;10374748;28;20054;-57
2022/11/19 15:42:04;;;;;;;1.90;1.80;;;;;;;20.46;49.28;96337.13;10359127;28;20054;-58
2022/11/19 15:47:30;;;;;;;2.13;1.88;;;;;;;20.47;49.17;96336.00;10374046;28;20053;-57
2022/11/19 15:53:13;;;;;;;2.17;1.90;;;;;;;20.46;49.07;96334.41;10358586;28;20502;-57
2022/11/19 15:58:38;;;;;;;2.40;1.95;;;;;;;20.47;49.28;96335.22;10362522;28;20057;-57
2022/11/19 16:04:02;;;;;;;2.10;1.90;;;;;;;20.48;49.34;96343.00;10373398;28;20061;-56
2022/11/19 16:09:23;;;;;;;2.10;1.90;;;;;;;20.50;49.20;96348.06;10371494;28;20037;-57
2022/11/19 16:20:27;;;;;;;2.20;2.00;;;;;;;20.50;49.17;96326.41;10372739;28;20452;-56
2022/11/19 16:25:47;;;;;;;2.00;1.80;;;;;;;20.50;49.15;96332.63;10371964;28;20054;-58
2022/11/19 16:31:07;;;;;;;2.70;2.08;;;;;;;20.51;49.09;96336.91;10372942;28;20452;-56
2022/11/19 16:36:28;;;;;;;2.45;2.00;;;;;;;20.51;49.10;96344.25;10356699;28;20053;-57
2022/11/19 16:47:31;;;;;;;1.80;1.70;;;;;;;20.53;48.83;96347.41;10411750;28;20480;-57
2022/11/19 16:52:52;;;;;;;2.33;2.13;;;;;;;20.52;48.96;96349.31;10397635;28;20049;-57
2022/11/19 16:58:18;;;;;;;2.40;1.92;;;;;;;20.54;48.90;96343.53;10411771;28;20061;-58
2022/11/19 17:03:39;;;;;;;1.80;1.70;;;;;;;20.54;48.84;96347.06;10428571;28;20037;-58
2022/11/19 17:08:59;;;;;;;3.05;2.10;;;;;;;20.55;48.80;96350.53;10414980;28;20061;-57
2022/11/19 17:14:23;;;;;;;2.30;2.10;;;;;;;20.54;48.88;96349.75;10414715;28;20080;-57
2022/11/19 17:19:42;;;;;;;2.38;2.10;;;;;;;20.56;48.69;96362.94;10427196;28;20041;-58
2022/11/19 17:25:02;;;;;;;2.38;2.03;;;;;;;20.57;48.79;96358.31;10414459;28;20053;-56
2022/11/19 17:30:25;;;;;;;2.38;2.17;;;;;;;20.57;48.67;96366.44;10427669;28;20481;-57
2022/11/19 17:35:48;;;;;;;2.40;2.20;;;;;;;20.57;48.81;96361.81;10410070;28;20046;-58
2022/11/19 17:41:11;;;;;;;2.10;2.00;;;;;;;20.59;48.75;96358.78;10387734;28;20049;-58
2022/11/19 17:46:30;;;;;;;3.08;2.47;;;;;;;20.59;48.54;96362.28;10427040;28;20425;-57
2022/11/19 17:51:50;;;;;;;2.50;2.30;;;;;;;20.61;48.75;96375.50;10413366;28;20046;-58
2022/11/19 17:57:10;;;;;;;2.42;2.22;;;;;;;20.60;48.83;96377.41;10419072;28;20527;-58
2022/11/19 18:02:30;;;;;;;2.40;2.20;;;;;;;20.61;48.67;96375.50;10413936;28;20076;-57
2022/11/19 18:07:49;;;;;;;3.00;2.70;;;;;;;20.62;48.59;96383.28;10427029;28;20044;-58
2022/11/19 18:13:11;;;;;;;2.42;2.22;;;;;;;20.62;48.66;96377.88;10413516;28;20056;-58
2022/11/19 18:18:31;;;;;;;2.63;2.38;;;;;;;20.62;48.55;96388.69;10398888;28;20140;-57
2022/11/19 18:23:51;;;;;;;2.80;2.40;;;;;;;20.64;48.59;96385.63;10412882;28;20124;-58
2022/11/19 18:29:10;;;;;;;2.53;2.33;;;;;;;20.65;48.53;96387.22;10394737;28;20059;-57
2022/11/19 18:34:30;;;;;;;2.58;2.38;;;;;;;20.65;48.63;96389.91;10379437;28;20610;-57
2022/11/19 18:39:51;;;;;;;2.53;2.33;;;;;;;20.65;48.41;96384.50;10372253;28;20088;-58
2022/11/19 18:45:11;;;;;;;2.88;2.58;;;;;;;20.66;48.56;96369.81;10416679;28;20042;-57
2022/11/19 18:50:31;;;;;;;2.58;2.38;;;;;;;20.67;48.28;96360.59;10408757;28;20354;-58
2022/11/19 18:55:51;;;;;;;3.03;2.72;;;;;;;20.67;48.37;96355.19;10408892;28;20057;-57
2022/11/19 19:01:11;;;;;;;2.80;2.47;;;;;;;20.67;48.45;96368.72;10412450;28;20057;-58
2022/11/19 19:06:31;;;;;;;2.50;2.22;;;;;;;20.67;48.29;96361.38;10419449;28;20049;-57
2022/11/19 19:17:30;;;;;;;;;;;;;;;20.69;47.88;96372.63;10420178;28;20053;-57
2022/11/19 19:22:49;;;;;;;2.78;2.58;;;;;;;20.70;48.30;96368.03;10432831;28;19920;-58
2022/11/19 19:28:09;;;;;;;2.83;2.40;;;;;;;20.71;48.29;96356.06;10407038;28;20046;-58
2022/11/19 19:33:28;;;;;;;2.72;2.53;;;;;;;20.71;48.23;96354.13;10391363;28;20409;-58
2022/11/19 19:38:48;;;;;;;3.10;2.80;;;;;;;20.72;48.10;96361.16;10377303;28;20058;-58
2022/11/19 19:44:09;;;;;;;2.63;2.42;;;;;;;20.73;48.13;96368.13;10402763;28;20045;-57
2022/11/19 19:49:28;;;;;;;3.20;2.90;;;;;;;20.74;48.00;96363.50;10417986;28;20492;-57
2022/11/19 19:54:48;;;;;;;3.03;2.75;;;;;;;20.76;47.99;96368.56;10402768;28;20118;-57
2022/11/19 20:00:10;;;;;;;3.15;2.67;;;;;;;20.77;48.00;96376.34;10418163;28;20080;-58
2022/11/19 20:05:31;;;;;;;2.80;2.60;;;;;;;20.76;47.94;96373.97;10431051;28;20049;-57
2022/11/19 20:10:51;;;;;;;3.25;2.95;;;;;;;20.79;48.05;96386.84;10430313;28;20098;-58
2022/11/19 20:16:13;;;;;;;2.72;2.50;;;;;;;20.79;47.95;96381.44;10430609;28;20052;-57
2022/11/19 20:21:35;;;;;;;3.00;2.70;;;;;;;20.81;47.91;96376.47;10417476;28;20049;-57
2022/11/19 20:26:55;;;;;;;3.00;2.70;;;;;;;20.80;48.08;96372.19;10384851;28;20060;-58
2022/11/19 20:32:14;;;;;;;2.97;2.78;;;;;;;20.83;47.95;96371.50;10376303;28;20062;-58
2022/11/19 20:37:33;;;;;;;2.78;2.55;;;;;;;20.83;47.92;96376.91;10375249;28;20050;-57
2022/11/19 20:48:31;;;;;;;3.20;2.90;;;;;;;20.83;47.72;96387.72;10416252;28;20107;-57
2022/11/19 20:53:51;;;;;;;3.20;2.95;;;;;;;20.83;47.94;96393.16;10429191;28;20049;-57
2022/11/19 20:59:11;;;;;;;3.25;2.95;;;;;;;20.83;47.93;96387.72;10414888;28;20070;-58
2022/11/19 21:04:35;;;;;;;3.00;2.80;;;;;;;20.81;47.90;96385.34;10415641;28;20064;-57
2022/11/19 21:09:54;;;;;;;3.30;3.00;;;;;;;20.81;47.90;96390.00;10428548;28;20041;-58
2022/11/19 21:15:14;;;;;;;3.00;2.75;;;;;;;20.81;47.88;96385.34;10414178;28;20485;-58
2022/11/19 21:20:33;;;;;;;3.05;2.80;;;;;;;20.80;47.82;96383.78;10403611;28;20465;-57
2022/11/19 21:25:59;;;;;;;3.20;2.90;;;;;;;20.80;47.92;96380.31;10372827;28;20064;-58
2022/11/19 21:31:22;;;;;;;3.20;2.95;;;;;;;20.81;47.96;96390.00;10372516;28;20490;-58
2022/11/19 21:36:43;;;;;;;4.03;3.08;;;;;;;20.77;47.92;96383.69;10386380;28;20556;-58
2022/11/19 21:42:02;;;;;;;3.30;3.00;;;;;;;20.77;47.97;96378.28;10382019;28;20053;-58
2022/11/19 21:47:22;;;;;;;3.53;3.22;;;;;;;20.74;47.79;96369.72;10413127;28;20045;-58
2022/11/19 21:52:41;;;;;;;3.40;3.10;;;;;;;20.73;47.88;96362.69;10413276;28;20049;-58
2022/11/19 21:58:03;;;;;;;3.42;3.13;;;;;;;20.71;47.95;96356.84;10413347;28;20065;-58
2022/11/19 22:03:22;;;;;;;3.33;3.00;;;;;;;20.72;48.00;96363.06;10413903;28;20056;-57
2022/11/19 22:08:42;;;;;;;4.38;3.20;;;;;;;20.70;47.84;96363.41;10413902;28;20057;-58
2022/11/19 22:14:06;;;;;;;3.47;3.17;;;;;;;20.68;47.96;96362.97;10413143;28;20128;-57
2022/11/19 22:19:26;;;;;;;4.05;3.65;;;;;;;20.67;47.84;96358.66;10381371;28;20054;-56
2022/11/19 22:24:45;;;;;;;3.85;3.55;;;;;;;20.65;47.90;96350.09;10385640;28;20049;-58
2022/11/19 22:30:06;;;;;;;3.60;3.30;;;;;;;20.64;47.86;96350.44;10372512;28;20060;-57
2022/11/19 22:35:25;;;;;;;3.50;3.20;;;;;;;20.63;47.93;96352.34;10387724;28;20053;-57
2022/11/19 22:40:45;;;;;;;3.28;2.97;;;;;;;20.61;48.05;96349.22;10380249;28;20053;-57
2022/11/19 22:46:07;;;;;;;3.60;3.30;;;;;;;20.60;47.89;96347.66;10338719;28;20529;-57
2022/11/19 22:51:26;;;;;;;3.60;3.30;;;;;;;20.58;47.94;96341.75;10339267;28;20061;-57
2022/11/19 22:56:45;;;;;;;3.85;3.45;;;;;;;20.57;48.03;96334.75;10338361;28;20490;-58
2022/11/19 23:02:05;;;;;;;3.63;3.33;;;;;;;20.54;47.90;96332.72;10338958;28;20058;-57
2022/11/19 23:07:25;;;;;;;4.53;3.65;;;;;;;20.53;48.08;96321.13;10338800;28;20062;-57
2022/11/19 23:18:23;;;;;;;4.55;3.70;;;;;;;20.50;48.05;96318.31;10392023;28;20620;-58
2022/11/19 23:23:43;;;;;;;3.95;3.55;;;;;;;20.49;47.99;96322.16;10391583;28;20046;-58
2022/11/19 23:29:03;;;;;;;4.10;3.70;;;;;;;20.46;47.94;96322.81;10378167;28;20054;-57
2022/11/19 23:34:22;;;;;;;3.92;3.58;;;;;;;20.44;48.07;96325.84;10378080;28;20057;-57
2022/11/19 23:39:42;;;;;;;3.50;3.20;;;;;;;20.41;48.08;96328.47;10377571;28;20520;-57
2022/11/19 23:45:01;;;;;;;4.00;3.70;;;;;;;20.40;48.01;96326.91;10395618;28;20525;-58
2022/11/19 23:50:21;;;;;;;4.03;3.53;;;;;;;20.39;47.99;96325.34;10431200;28;20048;-57
2022/11/19 23:55:45;;;;;;;3.95;3.60;;;;;;;20.39;47.99;96325.34;10418128;28;20049;-58
